sensor_id;sensor_type;location;lat;lon;timestamp;pressure;altitude;pressure_sealevel;temperature;humidity
12666;BME280;58531;59.050;17.416;2023-07-13T00:01:05;99937.56;;;12.53;100.00
12666;BME280;58531;59.050;17.416;2023-07-13T00:03:32;99938.47;;;12.50;100.00
12666;BME280;58531;59.050;17.416;2023-07-13T00:06:01;99931.47;;;12.53;100.00
12666;BME280;58531;59.050;17.416;2023-07-13T00:08:30;99938.47;;;12.50;100.00
12666;BME280;58531;59.050;17.416;2023-07-13T00:10:59;99936.28;;;12.49;100.00
12666;BME280;58531;59.050;17.416;2023-07-13T00:13:27;99934.53;;;12.46;100.00
12666;BME280;58531;59.050;17.416;2023-07-13T00:15:54;99935.00;;;12.44;100.00
12666;BME280;58531;59.050;17.416;2023-07-13T00:18:22;99934.06;;;12.47;100.00
12666;BME280;58531;59.050;17.416;2023-07-13T00:20:49;99944.22;;;12.43;100.00
12666;BME280;58531;59.050;17.416;2023-07-13T00:23:17;99932.97;;;12.39;100.00
12666;BME280;58531;59.050;17.416;2023-07-13T00:25:44;99938.78;;;12.38;100.00
12666;BME280;58531;59.050;17.416;2023-07-13T00:28:13;99939.25;;;12.36;100.00
12666;BME280;58531;59.050;17.416;2023-07-13T00:30:40;99944.31;;;12.34;100.00
12666;BME280;58531;59.050;17.416;2023-07-13T00:33:07;99942.38;;;12.35;100.00
12666;BME280;58531;59.050;17.416;2023-07-13T00:35:34;99939.25;;;12.36;100.00
12666;BME280;58531;59.050;17.416;2023-07-13T00:38:04;99935.38;;;12.37;100.00
12666;BME280;58531;59.050;17.416;2023-07-13T00:40:31;99942.19;;;12.38;100.00
12666;BME280;58531;59.050;17.416;2023-07-13T00:42:59;99947.00;;;12.34;100.00
12666;BME280;58531;59.050;17.416;2023-07-13T00:48:34;99949.97;;;12.36;100.00
12666;BME280;58531;59.050;17.416;2023-07-13T00:51:03;99948.19;;;12.33;100.00
12666;BME280;58531;59.050;17.416;2023-07-13T00:53:34;99942.56;;;12.31;100.00
12666;BME280;58531;59.050;17.416;2023-07-13T00:56:02;99945.41;;;12.28;100.00
12666;BME280;58531;59.050;17.416;2023-07-13T00:58:30;99945.41;;;12.28;100.00
12666;BME280;58531;59.050;17.416;2023-07-13T01:00:58;99935.47;;;12.28;100.00
12666;BME280;58531;59.050;17.416;2023-07-13T01:03:25;99945.41;;;12.28;100.00
12666;BME280;58531;59.050;17.416;2023-07-13T01:05:53;99942.00;;;12.27;100.00
12666;BME280;58531;59.050;17.416;2023-07-13T01:08:21;99946.53;;;12.21;100.00
12666;BME280;58531;59.050;17.416;2023-07-13T01:10:52;99953.28;;;12.17;100.00
12666;BME280;58531;59.050;17.416;2023-07-13T01:13:19;99948.38;;;12.15;100.00
12666;BME280;58531;59.050;17.416;2023-07-13T01:15:49;99946.63;;;12.12;100.00
12666;BME280;58531;59.050;17.416;2023-07-13T01:18:20;99957.03;;;12.10;100.00
12666;BME280;58531;59.050;17.416;2023-07-13T01:20:52;99962.88;;;12.09;100.00
12666;BME280;58531;59.050;17.416;2023-07-13T01:23:19;99953.81;;;12.06;100.00
12666;BME280;58531;59.050;17.416;2023-07-13T01:25:47;99960.91;;;12.09;100.00
12666;BME280;58531;59.050;17.416;2023-07-13T01:28:14;99950.22;;;12.09;100.00
12666;BME280;58531;59.050;17.416;2023-07-13T01:30:42;99945.06;;;12.06;100.00
12666;BME280;58531;59.050;17.416;2023-07-13T01:33:11;99955.00;;;12.05;100.00
12666;BME280;58531;59.050;17.416;2023-07-13T01:35:39;99954.44;;;12.01;100.00
12666;BME280;58531;59.050;17.416;2023-07-13T01:38:10;99952.44;;;11.96;100.00
12666;BME280;58531;59.050;17.416;2023-07-13T01:40:38;99949.00;;;11.96;100.00
12666;BME280;58531;59.050;17.416;2023-07-13T01:43:05;99949.75;;;11.96;100.00
12666;BME280;58531;59.050;17.416;2023-07-13T01:45:32;99953.78;;;11.92;100.00
12666;BME280;58531;59.050;17.416;2023-07-13T01:48:00;99957.22;;;11.92;100.00
12666;BME280;58531;59.050;17.416;2023-07-13T01:50:27;99966.59;;;11.88;100.00
12666;BME280;58531;59.050;17.416;2023-07-13T01:52:54;99959.78;;;11.87;100.00
12666;BME280;58531;59.050;17.416;2023-07-13T01:55:23;99963.50;;;11.89;100.00
12666;BME280;58531;59.050;17.416;2023-07-13T01:57:50;99962.28;;;11.90;100.00
12666;BME280;58531;59.050;17.416;2023-07-13T02:00:17;99962.28;;;11.90;100.00
12666;BME280;58531;59.050;17.416;2023-07-13T02:02:44;99967.06;;;11.86;100.00
12666;BME280;58531;59.050;17.416;2023-07-13T02:05:12;99965.03;;;11.81;100.00
12666;BME280;58531;59.050;17.416;2023-07-13T02:07:41;99964.75;;;11.79;100.00
12666;BME280;58531;59.050;17.416;2023-07-13T02:10:09;99970.09;;;11.79;100.00
12666;BME280;58531;59.050;17.416;2023-07-13T02:12:38;99965.19;;;11.78;100.00
12666;BME280;58531;59.050;17.416;2023-07-13T02:15:06;99965.59;;;11.85;100.00
12666;BME280;58531;59.050;17.416;2023-07-13T02:17:34;99965.69;;;11.91;100.00
12666;BME280;58531;59.050;17.416;2023-07-13T02:20:02;99977.44;;;11.93;100.00
12666;BME280;58531;59.050;17.416;2023-07-13T02:22:30;99983.22;;;11.92;100.00
12666;BME280;58531;59.050;17.416;2023-07-13T02:24:57;99981.31;;;11.92;100.00
12666;BME280;58531;59.050;17.416;2023-07-13T02:27:24;99982.22;;;11.89;100.00
12666;BME280;58531;59.050;17.416;2023-07-13T02:29:53;99975.38;;;11.88;100.00
12666;BME280;58531;59.050;17.416;2023-07-13T02:32:20;99972.25;;;11.90;100.00
12666;BME280;58531;59.050;17.416;2023-07-13T02:34:47;99980.28;;;11.90;100.00
12666;BME280;58531;59.050;17.416;2023-07-13T02:37:14;99983.50;;;11.94;100.00
12666;BME280;58531;59.050;17.416;2023-07-13T02:39:42;99987.94;;;11.97;100.00
12666;BME280;58531;59.050;17.416;2023-07-13T02:42:08;99984.63;;;12.02;100.00
12666;BME280;58531;59.050;17.416;2023-07-13T02:44:35;99987.69;;;12.09;100.00
12666;BME280;58531;59.050;17.416;2023-07-13T02:47:04;99989.00;;;12.14;100.00
12666;BME280;58531;59.050;17.416;2023-07-13T02:49:31;99998.59;;;12.20;100.00
12666;BME280;58531;59.050;17.416;2023-07-13T02:51:58;99995.00;;;12.23;100.00
12666;BME280;58531;59.050;17.416;2023-07-13T02:54:25;100000.91;;;12.27;100.00
12666;BME280;58531;59.050;17.416;2023-07-13T02:56:54;100000.00;;;12.30;100.00
12666;BME280;58531;59.050;17.416;2023-07-13T02:59:22;99998.25;;;12.42;100.00
12666;BME280;58531;59.050;17.416;2023-07-13T03:01:49;100003.38;;;13.03;100.00
12666;BME280;58531;59.050;17.416;2023-07-13T03:04:17;100004.28;;;13.89;100.00
12666;BME280;58531;59.050;17.416;2023-07-13T03:06:45;100009.31;;;14.46;100.00
12666;BME280;58531;59.050;17.416;2023-07-13T03:09:12;100011.88;;;14.61;100.00
12666;BME280;58531;59.050;17.416;2023-07-13T03:11:39;100018.09;;;15.45;100.00
12666;BME280;58531;59.050;17.416;2023-07-13T03:14:08;100012.28;;;15.52;100.00
12666;BME280;58531;59.050;17.416;2023-07-13T03:16:35;100016.44;;;16.22;100.00
12666;BME280;58531;59.050;17.416;2023-07-13T03:19:02;100017.97;;;16.40;100.00
12666;BME280;58531;59.050;17.416;2023-07-13T03:21:30;100018.94;;;16.48;100.00
12666;BME280;58531;59.050;17.416;2023-07-13T03:23:59;100023.13;;;16.92;100.00
12666;BME280;58531;59.050;17.416;2023-07-13T03:26:26;100020.81;;;17.57;100.00
12666;BME280;58531;59.050;17.416;2023-07-13T03:28:53;100023.78;;;18.10;100.00
12666;BME280;58531;59.050;17.416;2023-07-13T03:31:24;100026.50;;;18.04;100.00
12666;BME280;58531;59.050;17.416;2023-07-13T03:33:52;100031.88;;;18.56;100.00
12666;BME280;58531;59.050;17.416;2023-07-13T03:36:21;100032.09;;;18.87;100.00
12666;BME280;58531;59.050;17.416;2023-07-13T03:38:51;100033.38;;;18.05;100.00
12666;BME280;58531;59.050;17.416;2023-07-13T03:41:19;100036.09;;;17.27;100.00
12666;BME280;58531;59.050;17.416;2023-07-13T03:43:48;100031.72;;;16.69;100.00
12666;BME280;58531;59.050;17.416;2023-07-13T03:46:16;100027.50;;;16.46;100.00
12666;BME280;58531;59.050;17.416;2023-07-13T03:48:45;100032.56;;;16.06;100.00
12666;BME280;58531;59.050;17.416;2023-07-13T03:51:14;100036.63;;;15.85;100.00
12666;BME280;58531;59.050;17.416;2023-07-13T03:53:43;100041.19;;;15.62;100.00
12666;BME280;58531;59.050;17.416;2023-07-13T03:56:12;100041.50;;;15.75;100.00
12666;BME280;58531;59.050;17.416;2023-07-13T03:58:41;100041.44;;;16.28;100.00
12666;BME280;58531;59.050;17.416;2023-07-13T04:01:10;100047.38;;;17.31;100.00
12666;BME280;58531;59.050;17.416;2023-07-13T04:03:38;100056.00;;;18.48;100.00
12666;BME280;58531;59.050;17.416;2023-07-13T04:06:07;100052.66;;;19.54;90.32
12666;BME280;58531;59.050;17.416;2023-07-13T04:08:36;100055.81;;;20.19;84.89
12666;BME280;58531;59.050;17.416;2023-07-13T04:11:04;100061.81;;;20.99;76.84
12666;BME280;58531;59.050;17.416;2023-07-13T04:13:32;100057.94;;;21.64;73.49
12666;BME280;58531;59.050;17.416;2023-07-13T04:16:00;100061.38;;;22.37;70.82
12666;BME280;58531;59.050;17.416;2023-07-13T04:18:27;100065.19;;;22.75;67.99
12666;BME280;58531;59.050;17.416;2023-07-13T04:20:54;100065.78;;;22.81;66.02
12666;BME280;58531;59.050;17.416;2023-07-13T04:23:21;100068.34;;;22.12;69.33
12666;BME280;58531;59.050;17.416;2023-07-13T04:25:50;100071.63;;;23.26;65.49
12666;BME280;58531;59.050;17.416;2023-07-13T04:28:18;100067.75;;;23.14;64.71
12666;BME280;58531;59.050;17.416;2023-07-13T04:30:46;100073.53;;;23.38;65.09
12666;BME280;58531;59.050;17.416;2023-07-13T04:33:13;100072.63;;;23.71;62.89
12666;BME280;58531;59.050;17.416;2023-07-13T04:35:42;100072.28;;;22.58;67.20
12666;BME280;58531;59.050;17.416;2023-07-13T04:38:09;100074.84;;;21.57;71.10
12666;BME280;58531;59.050;17.416;2023-07-13T04:40:37;100074.75;;;20.43;77.63
12666;BME280;58531;59.050;17.416;2023-07-13T04:43:04;100078.25;;;19.29;83.68
12666;BME280;58531;59.050;17.416;2023-07-13T04:45:31;100086.94;;;19.22;84.60
12666;BME280;58531;59.050;17.416;2023-07-13T04:48:00;100077.81;;;19.25;83.51
12666;BME280;58531;59.050;17.416;2023-07-13T04:50:27;100082.88;;;20.06;81.40
12666;BME280;58531;59.050;17.416;2023-07-13T04:52:54;100081.78;;;21.14;74.90
12666;BME280;58531;59.050;17.416;2023-07-13T04:55:21;100086.75;;;21.67;70.93
12666;BME280;58531;59.050;17.416;2023-07-13T04:57:48;100087.69;;;22.55;68.50
12666;BME280;58531;59.050;17.416;2023-07-13T05:00:15;100084.28;;;22.42;68.21
12666;BME280;58531;59.050;17.416;2023-07-13T05:02:44;100090.50;;;22.16;68.00
12666;BME280;58531;59.050;17.416;2023-07-13T05:05:13;100083.53;;;20.99;73.12
12666;BME280;58531;59.050;17.416;2023-07-13T05:07:40;100088.91;;;22.21;70.67
12666;BME280;58531;59.050;17.416;2023-07-13T05:10:08;100092.75;;;21.66;69.80
12666;BME280;58531;59.050;17.416;2023-07-13T05:12:36;100088.59;;;20.39;76.22
12666;BME280;58531;59.050;17.416;2023-07-13T05:15:04;100087.63;;;19.76;78.20
12666;BME280;58531;59.050;17.416;2023-07-13T05:17:31;100091.06;;;21.06;77.31
12666;BME280;58531;59.050;17.416;2023-07-13T05:19:58;100088.84;;;22.00;69.10
12666;BME280;58531;59.050;17.416;2023-07-13T05:22:27;100090.78;;;23.13;64.52
12666;BME280;58531;59.050;17.416;2023-07-13T05:24:54;100089.22;;;24.08;61.32
12666;BME280;58531;59.050;17.416;2023-07-13T05:27:21;100084.03;;;23.62;59.36
12666;BME280;58531;59.050;17.416;2023-07-13T05:29:49;100081.66;;;23.59;61.34
12666;BME280;58531;59.050;17.416;2023-07-13T05:32:17;100085.44;;;23.84;59.34
12666;BME280;58531;59.050;17.416;2023-07-13T05:34:44;100086.63;;;24.03;56.75
12666;BME280;58531;59.050;17.416;2023-07-13T05:37:12;100083.47;;;24.34;57.64
12666;BME280;58531;59.050;17.416;2023-07-13T05:39:40;100088.34;;;24.21;59.89
12666;BME280;58531;59.050;17.416;2023-07-13T05:42:08;100082.25;;;23.65;60.82
12666;BME280;58531;59.050;17.416;2023-07-13T05:44:35;100079.84;;;24.39;58.80
12666;BME280;58531;59.050;17.416;2023-07-13T05:47:02;100088.91;;;24.27;56.70
12666;BME280;58531;59.050;17.416;2023-07-13T05:49:29;100087.59;;;25.01;54.70
12666;BME280;58531;59.050;17.416;2023-07-13T05:51:57;100092.44;;;25.92;52.51
12666;BME280;58531;59.050;17.416;2023-07-13T05:54:24;100101.88;;;26.06;52.06
12666;BME280;58531;59.050;17.416;2023-07-13T05:56:52;100104.28;;;26.34;51.92
12666;BME280;58531;59.050;17.416;2023-07-13T05:59:19;100098.81;;;26.34;50.24
12666;BME280;58531;59.050;17.416;2023-07-13T06:01:46;100091.97;;;24.96;52.71
12666;BME280;58531;59.050;17.416;2023-07-13T06:04:13;100110.19;;;24.21;54.93
12666;BME280;58531;59.050;17.416;2023-07-13T06:06:40;100106.19;;;24.29;55.92
12666;BME280;58531;59.050;17.416;2023-07-13T06:09:07;100110.00;;;25.51;54.25
12666;BME280;58531;59.050;17.416;2023-07-13T06:11:34;100108.09;;;26.46;50.39
12666;BME280;58531;59.050;17.416;2023-07-13T06:14:03;100109.03;;;25.94;51.05
12666;BME280;58531;59.050;17.416;2023-07-13T06:16:30;100107.66;;;25.33;52.81
12666;BME280;58531;59.050;17.416;2023-07-13T06:18:57;100112.44;;;24.02;54.39
12666;BME280;58531;59.050;17.416;2023-07-13T06:21:24;100116.53;;;24.23;57.39
12666;BME280;58531;59.050;17.416;2023-07-13T06:23:52;100113.81;;;25.71;52.04
12666;BME280;58531;59.050;17.416;2023-07-13T06:26:22;100107.63;;;25.63;51.42
12666;BME280;58531;59.050;17.416;2023-07-13T06:28:50;100109.25;;;25.81;51.31
12666;BME280;58531;59.050;17.416;2023-07-13T06:31:18;100104.09;;;26.00;50.98
12666;BME280;58531;59.050;17.416;2023-07-13T06:33:45;100106.19;;;24.72;55.96
12666;BME280;58531;59.050;17.416;2023-07-13T06:36:12;100105.78;;;24.61;55.64
12666;BME280;58531;59.050;17.416;2023-07-13T06:38:39;100112.72;;;25.81;53.05
12666;BME280;58531;59.050;17.416;2023-07-13T06:41:07;100121.19;;;26.54;48.08
12666;BME280;58531;59.050;17.416;2023-07-13T06:43:34;100113.06;;;25.78;49.16
12666;BME280;58531;59.050;17.416;2023-07-13T06:46:01;100115.44;;;25.89;51.02
12666;BME280;58531;59.050;17.416;2023-07-13T06:48:30;100117.53;;;25.28;54.16
12666;BME280;58531;59.050;17.416;2023-07-13T06:50:57;100123.41;;;24.09;54.39
12666;BME280;58531;59.050;17.416;2023-07-13T06:53:24;100115.31;;;23.89;55.13
12666;BME280;58531;59.050;17.416;2023-07-13T06:55:51;100122.91;;;24.61;55.25
12666;BME280;58531;59.050;17.416;2023-07-13T06:58:18;100122.47;;;23.99;54.39
12666;BME280;58531;59.050;17.416;2023-07-13T07:00:46;100116.38;;;23.30;56.11
12666;BME280;58531;59.050;17.416;2023-07-13T07:03:13;100119.06;;;22.36;61.64
12666;BME280;58531;59.050;17.416;2023-07-13T07:05:42;100119.53;;;23.42;58.05
12666;BME280;58531;59.050;17.416;2023-07-13T07:08:09;100125.97;;;24.58;55.78
12666;BME280;58531;59.050;17.416;2023-07-13T07:10:36;100122.97;;;25.06;52.11
12666;BME280;58531;59.050;17.416;2023-07-13T07:13:03;100114.78;;;25.28;51.41
12666;BME280;58531;59.050;17.416;2023-07-13T07:15:30;100122.56;;;25.84;51.46
12666;BME280;58531;59.050;17.416;2023-07-13T07:17:57;100119.00;;;26.06;48.84
12666;BME280;58531;59.050;17.416;2023-07-13T07:20:24;100121.81;;;25.91;48.28
12666;BME280;58531;59.050;17.416;2023-07-13T07:22:53;100115.97;;;26.73;47.12
12666;BME280;58531;59.050;17.416;2023-07-13T07:25:20;100112.66;;;27.65;45.89
12666;BME280;58531;59.050;17.416;2023-07-13T07:27:47;100118.63;;;27.13;45.43
12666;BME280;58531;59.050;17.416;2023-07-13T07:30:14;100126.06;;;27.61;45.29
12666;BME280;58531;59.050;17.416;2023-07-13T07:32:41;100125.88;;;26.93;44.43
12666;BME280;58531;59.050;17.416;2023-07-13T07:35:08;100125.16;;;26.68;45.28
12666;BME280;58531;59.050;17.416;2023-07-13T07:37:35;100128.00;;;25.99;48.52
12666;BME280;58531;59.050;17.416;2023-07-13T07:40:05;100135.19;;;25.50;49.52
12666;BME280;58531;59.050;17.416;2023-07-13T07:42:33;100131.38;;;25.30;50.44
12666;BME280;58531;59.050;17.416;2023-07-13T07:45:00;100137.53;;;25.01;50.14
12666;BME280;58531;59.050;17.416;2023-07-13T07:47:27;100130.75;;;23.87;50.40
12666;BME280;58531;59.050;17.416;2023-07-13T07:49:55;100138.53;;;24.61;50.05
12666;BME280;58531;59.050;17.416;2023-07-13T07:52:22;100142.66;;;25.57;49.68
12666;BME280;58531;59.050;17.416;2023-07-13T07:54:49;100143.50;;;26.43;46.79
12666;BME280;58531;59.050;17.416;2023-07-13T07:57:18;100147.03;;;26.29;46.90
12666;BME280;58531;59.050;17.416;2023-07-13T07:59:45;100149.16;;;25.99;44.45
12666;BME280;58531;59.050;17.416;2023-07-13T08:02:12;100151.00;;;24.92;51.49
12666;BME280;58531;59.050;17.416;2023-07-13T08:04:39;100150.25;;;24.84;52.47
12666;BME280;58531;59.050;17.416;2023-07-13T08:07:06;100148.09;;;25.05;49.89
12666;BME280;58531;59.050;17.416;2023-07-13T08:09:33;100147.78;;;25.23;48.31
12666;BME280;58531;59.050;17.416;2023-07-13T08:12:00;100148.88;;;26.27;48.19
12666;BME280;58531;59.050;17.416;2023-07-13T08:14:29;100154.66;;;25.09;50.34
12666;BME280;58531;59.050;17.416;2023-07-13T08:16:57;100152.78;;;24.74;48.85
12666;BME280;58531;59.050;17.416;2023-07-13T08:19:24;100160.75;;;24.65;52.37
12666;BME280;58531;59.050;17.416;2023-07-13T08:21:51;100156.66;;;24.00;52.62
12666;BME280;58531;59.050;17.416;2023-07-13T08:24:18;100165.31;;;23.64;53.88
12666;BME280;58531;59.050;17.416;2023-07-13T08:26:45;100158.78;;;23.67;52.76
12666;BME280;58531;59.050;17.416;2023-07-13T08:29:12;100160.81;;;23.05;53.01
12666;BME280;58531;59.050;17.416;2023-07-13T08:31:41;100165.19;;;23.49;58.33
12666;BME280;58531;59.050;17.416;2023-07-13T08:34:08;100166.00;;;24.12;54.53
12666;BME280;58531;59.050;17.416;2023-07-13T08:36:34;100178.81;;;24.32;53.42
12666;BME280;58531;59.050;17.416;2023-07-13T08:39:02;100167.53;;;23.24;54.14
12666;BME280;58531;59.050;17.416;2023-07-13T08:41:29;100176.13;;;23.08;59.71
12666;BME280;58531;59.050;17.416;2023-07-13T08:43:58;100170.84;;;22.43;58.14
12666;BME280;58531;59.050;17.416;2023-07-13T08:46:28;100173.34;;;22.28;58.02
12666;BME280;58531;59.050;17.416;2023-07-13T08:49:03;100184.00;;;22.65;61.29
12666;BME280;58531;59.050;17.416;2023-07-13T08:51:37;100178.28;;;22.43;59.62
12666;BME280;58531;59.050;17.416;2023-07-13T08:54:14;100181.72;;;21.78;58.63
12666;BME280;58531;59.050;17.416;2023-07-13T08:56:44;100177.72;;;22.31;60.02
12666;BME280;58531;59.050;17.416;2023-07-13T08:59:15;100186.00;;;22.52;57.58
12666;BME280;58531;59.050;17.416;2023-07-13T09:02:16;100172.50;;;22.20;57.92
12666;BME280;58531;59.050;17.416;2023-07-13T09:04:50;100186.84;;;21.69;57.59
12666;BME280;58531;59.050;17.416;2023-07-13T09:07:29;100188.69;;;21.30;59.35
12666;BME280;58531;59.050;17.416;2023-07-13T09:10:07;100193.34;;;21.79;62.75
12666;BME280;58531;59.050;17.416;2023-07-13T09:12:51;100195.56;;;22.06;59.42
12666;BME280;58531;59.050;17.416;2023-07-13T09:15:25;100187.78;;;22.23;59.40
12666;BME280;58531;59.050;17.416;2023-07-13T09:17:55;100189.44;;;21.61;61.18
12666;BME280;58531;59.050;17.416;2023-07-13T09:20:29;100196.41;;;21.26;60.21
12666;BME280;58531;59.050;17.416;2023-07-13T09:22:59;100190.72;;;20.74;62.06
12666;BME280;58531;59.050;17.416;2023-07-13T09:25:31;100189.44;;;20.62;62.71
12666;BME280;58531;59.050;17.416;2023-07-13T09:28:01;100181.50;;;21.01;61.73
12666;BME280;58531;59.050;17.416;2023-07-13T09:30:34;100178.53;;;21.17;60.25
12666;BME280;58531;59.050;17.416;2023-07-13T09:33:04;100184.81;;;21.25;60.33
12666;BME280;58531;59.050;17.416;2023-07-13T09:35:34;100180.53;;;21.30;60.54
12666;BME280;58531;59.050;17.416;2023-07-13T09:38:11;100173.41;;;21.14;58.53
12666;BME280;58531;59.050;17.416;2023-07-13T09:40:48;100171.19;;;21.44;63.07
12666;BME280;58531;59.050;17.416;2023-07-13T09:43:18;100175.03;;;21.92;59.03
12666;BME280;58531;59.050;17.416;2023-07-13T09:45:47;100179.84;;;21.86;58.47
12666;BME280;58531;59.050;17.416;2023-07-13T09:48:16;100172.50;;;22.33;58.88
12666;BME280;58531;59.050;17.416;2023-07-13T09:50:45;100175.97;;;22.34;52.65
12666;BME280;58531;59.050;17.416;2023-07-13T09:53:13;100182.97;;;22.55;57.58
12666;BME280;58531;59.050;17.416;2023-07-13T09:55:42;100172.72;;;22.48;56.80
12666;BME280;58531;59.050;17.416;2023-07-13T09:58:12;100171.47;;;21.97;58.53
12666;BME280;58531;59.050;17.416;2023-07-13T10:00:41;100177.13;;;21.86;54.91
12666;BME280;58531;59.050;17.416;2023-07-13T10:03:18;100175.03;;;22.05;54.89
12666;BME280;58531;59.050;17.416;2023-07-13T10:05:51;100175.56;;;22.04;58.32
12666;BME280;58531;59.050;17.416;2023-07-13T10:08:21;100174.16;;;21.58;56.35
12666;BME280;58531;59.050;17.416;2023-07-13T10:10:59;100179.44;;;21.95;60.17
12666;BME280;58531;59.050;17.416;2023-07-13T10:13:29;100176.19;;;22.10;57.35
12666;BME280;58531;59.050;17.416;2023-07-13T10:15:57;100180.41;;;22.70;57.89
12666;BME280;58531;59.050;17.416;2023-07-13T10:18:25;100176.84;;;23.08;54.45
12666;BME280;58531;59.050;17.416;2023-07-13T10:21:00;100170.88;;;23.30;55.08
12666;BME280;58531;59.050;17.416;2023-07-13T10:23:35;100170.78;;;23.64;54.82
12666;BME280;58531;59.050;17.416;2023-07-13T10:26:05;100174.56;;;23.81;54.99
12666;BME280;58531;59.050;17.416;2023-07-13T10:28:38;100168.13;;;23.51;55.55
12666;BME280;58531;59.050;17.416;2023-07-13T10:31:11;100170.88;;;23.79;53.73
12666;BME280;58531;59.050;17.416;2023-07-13T10:33:39;100166.47;;;23.76;53.93
12666;BME280;58531;59.050;17.416;2023-07-13T10:36:15;100175.97;;;24.10;55.04
12666;BME280;58531;59.050;17.416;2023-07-13T10:38:44;100170.50;;;24.02;53.11
12666;BME280;58531;59.050;17.416;2023-07-13T10:41:16;100165.34;;;23.92;53.04
12666;BME280;58531;59.050;17.416;2023-07-13T10:43:46;100160.78;;;23.66;54.88
12666;BME280;58531;59.050;17.416;2023-07-13T10:46:18;100162.28;;;23.47;52.98
12666;BME280;58531;59.050;17.416;2023-07-13T10:48:49;100168.00;;;23.36;54.42
12666;BME280;58531;59.050;17.416;2023-07-13T10:51:19;100156.00;;;22.98;53.80
12666;BME280;58531;59.050;17.416;2023-07-13T10:54:11;100158.34;;;23.55;53.90
12666;BME280;58531;59.050;17.416;2023-07-13T10:56:42;100159.78;;;23.56;54.07
12666;BME280;58531;59.050;17.416;2023-07-13T10:59:12;100161.16;;;23.91;54.73
12666;BME280;58531;59.050;17.416;2023-07-13T11:01:48;100170.53;;;24.10;55.31
12666;BME280;58531;59.050;17.416;2023-07-13T11:04:16;100167.59;;;24.08;53.03
12666;BME280;58531;59.050;17.416;2023-07-13T11:06:48;100165.59;;;23.53;53.67
12666;BME280;58531;59.050;17.416;2023-07-13T11:09:35;100171.19;;;23.27;55.57
12666;BME280;58531;59.050;17.416;2023-07-13T11:12:07;100164.56;;;22.81;53.50
12666;BME280;58531;59.050;17.416;2023-07-13T11:14:37;100171.59;;;22.77;54.27
12666;BME280;58531;59.050;17.416;2023-07-13T11:17:33;100175.22;;;22.33;53.78
12666;BME280;58531;59.050;17.416;2023-07-13T11:20:19;100171.06;;;21.93;57.10
12666;BME280;58531;59.050;17.416;2023-07-13T11:22:49;100183.19;;;21.35;57.09
12666;BME280;58531;59.050;17.416;2023-07-13T11:25:25;100176.84;;;21.14;59.36
12666;BME280;58531;59.050;17.416;2023-07-13T11:28:07;100189.47;;;21.87;63.19
12666;BME280;58531;59.050;17.416;2023-07-13T11:30:40;100172.94;;;23.17;58.79
12666;BME280;58531;59.050;17.416;2023-07-13T11:33:13;100163.47;;;23.59;53.76
12666;BME280;58531;59.050;17.416;2023-07-13T11:35:45;100164.78;;;23.04;49.98
12666;BME280;58531;59.050;17.416;2023-07-13T11:38:17;100170.81;;;22.56;55.36
12666;BME280;58531;59.050;17.416;2023-07-13T11:40:46;100175.22;;;22.33;56.78
12666;BME280;58531;59.050;17.416;2023-07-13T11:43:14;100172.31;;;22.44;57.14
12666;BME280;58531;59.050;17.416;2023-07-13T11:45:42;100178.13;;;22.61;57.14
12666;BME280;58531;59.050;17.416;2023-07-13T11:48:20;100163.09;;;22.47;57.10
12666;BME280;58531;59.050;17.416;2023-07-13T11:50:57;100167.97;;;22.62;58.40
12666;BME280;58531;59.050;17.416;2023-07-13T11:53:30;100167.31;;;23.02;56.82
12666;BME280;58531;59.050;17.416;2023-07-13T11:55:59;100167.72;;;23.47;53.79
12666;BME280;58531;59.050;17.416;2023-07-13T11:58:27;100161.22;;;23.78;55.69
12666;BME280;58531;59.050;17.416;2023-07-13T12:00:57;100153.19;;;23.72;53.19
12666;BME280;58531;59.050;17.416;2023-07-13T12:03:26;100163.84;;;23.63;55.06
12666;BME280;58531;59.050;17.416;2023-07-13T12:06:00;100153.63;;;23.56;55.07
12666;BME280;58531;59.050;17.416;2023-07-13T12:08:29;100158.25;;;23.40;55.40
12666;BME280;58531;59.050;17.416;2023-07-13T12:10:59;100157.03;;;23.28;56.39
12666;BME280;58531;59.050;17.416;2023-07-13T12:13:27;100160.41;;;23.42;54.51
12666;BME280;58531;59.050;17.416;2023-07-13T12:15:56;100156.69;;;23.32;53.85
12666;BME280;58531;59.050;17.416;2023-07-13T12:18:29;100152.34;;;23.57;52.11
12666;BME280;58531;59.050;17.416;2023-07-13T12:20:58;100149.47;;;23.62;50.76
12666;BME280;58531;59.050;17.416;2023-07-13T12:23:31;100144.84;;;23.78;56.15
12666;BME280;58531;59.050;17.416;2023-07-13T12:26:00;100135.19;;;23.77;51.52
12666;BME280;58531;59.050;17.416;2023-07-13T12:28:33;100145.06;;;23.80;52.21
12666;BME280;58531;59.050;17.416;2023-07-13T12:31:02;100152.63;;;23.74;54.35
12666;BME280;58531;59.050;17.416;2023-07-13T12:33:31;100145.00;;;23.24;50.43
12666;BME280;58531;59.050;17.416;2023-07-13T12:37:58;100147.47;;;22.81;53.88
12666;BME280;58531;59.050;17.416;2023-07-13T12:40:28;100145.13;;;22.98;55.06
12666;BME280;58531;59.050;17.416;2023-07-13T12:42:58;100150.00;;;23.12;56.30
12666;BME280;58531;59.050;17.416;2023-07-13T12:45:27;100140.88;;;23.51;54.92
12666;BME280;58531;59.050;17.416;2023-07-13T12:47:57;100145.53;;;23.91;54.43
12666;BME280;58531;59.050;17.416;2023-07-13T12:50:30;100139.41;;;24.05;50.71
12666;BME280;58531;59.050;17.416;2023-07-13T12:53:04;100140.91;;;23.58;51.43